sensor_id;sensor_type;location;lat;lon;timestamp;P1;P2;P0
76421;PMS5003;65254;52.354;13.614;2023-06-14T00:04:01;3;3;
76421;PMS5003;65254;52.354;13.614;2023-06-14T00:08:00;3;3;
76421;PMS5003;65254;52.354;13.614;2023-06-14T00:12:00;3;3;
76421;PMS5003;65254;52.354;13.614;2023-06-14T00:16:00;3;3;
76421;PMS5003;65254;52.354;13.614;2023-06-14T00:20:02;3;3;
76421;PMS5003;65254;52.354;13.614;2023-06-14T00:24:01;3;3;
76421;PMS5003;65254;52.354;13.614;2023-06-14T00:28:00;3;3;
76421;PMS5003;65254;52.354;13.614;2023-06-14T00:32:01;3;3;
76421;PMS5003;65254;52.354;13.614;2023-06-14T00:36:00;3;3;
76421;PMS5003;65254;52.354;13.614;2023-06-14T00:40:00;3;3;
76421;PMS5003;65254;52.354;13.614;2023-06-14T00:44:01;3;3;
76421;PMS5003;65254;52.354;13.614;2023-06-14T00:48:01;3;3;
76421;PMS5003;65254;52.354;13.614;2023-06-14T00:52:00;3;3;
76421;PMS5003;65254;52.354;13.614;2023-06-14T00:56:01;3;3;
76421;PMS5003;65254;52.354;13.614;2023-06-14T01:00:00;3;3;
76421;PMS5003;65254;52.354;13.614;2023-06-14T01:04:00;4;4;
76421;PMS5003;65254;52.354;13.614;2023-06-14T01:08:10;3;3;
76421;PMS5003;65254;52.354;13.614;2023-06-14T01:12:04;4;4;
76421;PMS5003;65254;52.354;13.614;2023-06-14T01:16:01;4;4;
76421;PMS5003;65254;52.354;13.614;2023-06-14T01:20:01;4;4;
76421;PMS5003;65254;52.354;13.614;2023-06-14T01:24:00;4;4;
76421;PMS5003;65254;52.354;13.614;2023-06-14T01:28:03;4;4;
76421;PMS5003;65254;52.354;13.614;2023-06-14T01:32:01;4;4;
76421;PMS5003;65254;52.354;13.614;2023-06-14T01:36:01;4;4;
76421;PMS5003;65254;52.354;13.614;2023-06-14T01:40:01;5;5;
76421;PMS5003;65254;52.354;13.614;2023-06-14T01:44:01;4;4;
76421;PMS5003;65254;52.354;13.614;2023-06-14T01:48:01;5;5;
76421;PMS5003;65254;52.354;13.614;2023-06-14T01:52:01;4;4;
76421;PMS5003;65254;52.354;13.614;2023-06-14T01:56:00;4;4;
76421;PMS5003;65254;52.354;13.614;2023-06-14T02:00:00;5;5;
76421;PMS5003;65254;52.354;13.614;2023-06-14T02:04:00;5;5;
76421;PMS5003;65254;52.354;13.614;2023-06-14T02:08:00;4;4;
76421;PMS5003;65254;52.354;13.614;2023-06-14T02:12:01;5;5;
76421;PMS5003;65254;52.354;13.614;2023-06-14T02:16:01;5;5;
76421;PMS5003;65254;52.354;13.614;2023-06-14T02:20:01;5;5;
76421;PMS5003;65254;52.354;13.614;2023-06-14T02:24:01;5;5;
76421;PMS5003;65254;52.354;13.614;2023-06-14T02:28:00;5;5;
76421;PMS5003;65254;52.354;13.614;2023-06-14T02:32:01;5;5;
76421;PMS5003;65254;52.354;13.614;2023-06-14T02:36:01;5;5;
76421;PMS5003;65254;52.354;13.614;2023-06-14T02:40:00;5;5;
76421;PMS5003;65254;52.354;13.614;2023-06-14T02:44:01;6;6;
76421;PMS5003;65254;52.354;13.614;2023-06-14T02:48:01;6;6;
76421;PMS5003;65254;52.354;13.614;2023-06-14T02:52:01;5;5;
76421;PMS5003;65254;52.354;13.614;2023-06-14T02:56:00;6;6;
76421;PMS5003;65254;52.354;13.614;2023-06-14T03:00:00;5;5;
76421;PMS5003;65254;52.354;13.614;2023-06-14T03:04:01;6;6;
76421;PMS5003;65254;52.354;13.614;2023-06-14T03:08:00;6;6;
76421;PMS5003;65254;52.354;13.614;2023-06-14T03:12:00;5;5;
76421;PMS5003;65254;52.354;13.614;2023-06-14T03:16:01;7;7;
76421;PMS5003;65254;52.354;13.614;2023-06-14T03:20:00;6;6;
76421;PMS5003;65254;52.354;13.614;2023-06-14T03:24:00;5;5;
76421;PMS5003;65254;52.354;13.614;2023-06-14T03:28:01;6;6;
76421;PMS5003;65254;52.354;13.614;2023-06-14T03:32:02;6;6;
76421;PMS5003;65254;52.354;13.614;2023-06-14T03:36:01;6;6;
76421;PMS5003;65254;52.354;13.614;2023-06-14T03:40:00;6;6;
76421;PMS5003;65254;52.354;13.614;2023-06-14T03:44:00;6;6;
76421;PMS5003;65254;52.354;13.614;2023-06-14T03:48:01;6;6;
76421;PMS5003;65254;52.354;13.614;2023-06-14T03:52:00;6;6;
76421;PMS5003;65254;52.354;13.614;2023-06-14T03:56:00;6;6;
76421;PMS5003;65254;52.354;13.614;2023-06-14T04:00:01;6;6;
76421;PMS5003;65254;52.354;13.614;2023-06-14T04:04:01;6;6;
76421;PMS5003;65254;52.354;13.614;2023-06-14T04:08:00;6;6;
76421;PMS5003;65254;52.354;13.614;2023-06-14T04:12:00;9;8;
76421;PMS5003;65254;52.354;13.614;2023-06-14T04:16:00;7;7;
76421;PMS5003;65254;52.354;13.614;2023-06-14T04:20:01;7;7;
76421;PMS5003;65254;52.354;13.614;2023-06-14T04:24:01;9;8;
76421;PMS5003;65254;52.354;13.614;2023-06-14T04:28:00;7;7;
76421;PMS5003;65254;52.354;13.614;2023-06-14T04:32:00;7;7;
76421;PMS5003;65254;52.354;13.614;2023-06-14T04:36:00;7;7;
76421;PMS5003;65254;52.354;13.614;2023-06-14T04:40:00;7;7;
76421;PMS5003;65254;52.354;13.614;2023-06-14T04:44:01;7;7;
76421;PMS5003;65254;52.354;13.614;2023-06-14T04:48:00;9;8;
76421;PMS5003;65254;52.354;13.614;2023-06-14T04:52:01;9;8;
76421;PMS5003;65254;52.354;13.614;2023-06-14T04:56:00;7;7;
76421;PMS5003;65254;52.354;13.614;2023-06-14T05:00:00;7;7;
76421;PMS5003;65254;52.354;13.614;2023-06-14T05:04:01;7;7;
76421;PMS5003;65254;52.354;13.614;2023-06-14T05:08:00;8;7;
76421;PMS5003;65254;52.354;13.614;2023-06-14T05:12:01;7;7;
76421;PMS5003;65254;52.354;13.614;2023-06-14T05:16:00;7;7;
76421;PMS5003;65254;52.354;13.614;2023-06-14T05:20:00;7;7;
76421;PMS5003;65254;52.354;13.614;2023-06-14T05:24:01;7;7;
76421;PMS5003;65254;52.354;13.614;2023-06-14T05:28:00;8;7;
76421;PMS5003;65254;52.354;13.614;2023-06-14T05:32:01;7;7;
76421;PMS5003;65254;52.354;13.614;2023-06-14T05:36:00;7;7;
76421;PMS5003;65254;52.354;13.614;2023-06-14T05:40:01;7;7;
76421;PMS5003;65254;52.354;13.614;2023-06-14T05:44:01;7;7;
76421;PMS5003;65254;52.354;13.614;2023-06-14T05:48:00;6;6;
76421;PMS5003;65254;52.354;13.614;2023-06-14T05:52:00;6;6;
76421;PMS5003;65254;52.354;13.614;2023-06-14T05:56:00;7;7;
76421;PMS5003;65254;52.354;13.614;2023-06-14T06:00:00;7;7;
76421;PMS5003;65254;52.354;13.614;2023-06-14T06:04:01;6;6;
76421;PMS5003;65254;52.354;13.614;2023-06-14T06:08:01;6;6;
76421;PMS5003;65254;52.354;13.614;2023-06-14T06:12:00;7;7;
76421;PMS5003;65254;52.354;13.614;2023-06-14T06:16:01;6;6;
76421;PMS5003;65254;52.354;13.614;2023-06-14T06:20:00;6;6;
76421;PMS5003;65254;52.354;13.614;2023-06-14T06:24:00;7;7;
76421;PMS5003;65254;52.354;13.614;2023-06-14T06:28:00;7;7;
76421;PMS5003;65254;52.354;13.614;2023-06-14T06:32:01;9;8;
76421;PMS5003;65254;52.354;13.614;2023-06-14T06:36:00;6;6;
76421;PMS5003;65254;52.354;13.614;2023-06-14T06:40:00;7;7;
76421;PMS5003;65254;52.354;13.614;2023-06-14T06:44:00;8;7;
76421;PMS5003;65254;52.354;13.614;2023-06-14T06:48:00;8;7;
76421;PMS5003;65254;52.354;13.614;2023-06-14T06:52:01;8;7;
76421;PMS5003;65254;52.354;13.614;2023-06-14T06:56:00;9;8;
76421;PMS5003;65254;52.354;13.614;2023-06-14T07:00:00;6;6;
76421;PMS5003;65254;52.354;13.614;2023-06-14T07:04:00;7;7;
76421;PMS5003;65254;52.354;13.614;2023-06-14T07:08:00;6;6;
76421;PMS5003;65254;52.354;13.614;2023-06-14T07:12:00;7;7;
76421;PMS5003;65254;52.354;13.614;2023-06-14T07:16:01;7;7;
76421;PMS5003;65254;52.354;13.614;2023-06-14T07:20:01;7;7;
76421;PMS5003;65254;52.354;13.614;2023-06-14T07:24:01;7;7;
76421;PMS5003;65254;52.354;13.614;2023-06-14T07:28:00;6;6;
76421;PMS5003;65254;52.354;13.614;2023-06-14T07:32:00;7;7;
76421;PMS5003;65254;52.354;13.614;2023-06-14T07:36:00;6;6;
76421;PMS5003;65254;52.354;13.614;2023-06-14T07:40:00;6;6;
76421;PMS5003;65254;52.354;13.614;2023-06-14T07:44:00;7;6;
76421;PMS5003;65254;52.354;13.614;2023-06-14T07:48:01;6;6;
76421;PMS5003;65254;52.354;13.614;2023-06-14T07:52:00;6;6;
76421;PMS5003;65254;52.354;13.614;2023-06-14T07:56:00;6;6;
76421;PMS5003;65254;52.354;13.614;2023-06-14T08:00:00;5;5;
76421;PMS5003;65254;52.354;13.614;2023-06-14T08:04:00;6;6;
76421;PMS5003;65254;52.354;13.614;2023-06-14T08:08:00;6;6;
76421;PMS5003;65254;52.354;13.614;2023-06-14T08:12:00;5;5;
76421;PMS5003;65254;52.354;13.614;2023-06-14T08:16:01;6;6;
76421;PMS5003;65254;52.354;13.614;2023-06-14T08:20:00;6;6;
76421;PMS5003;65254;52.354;13.614;2023-06-14T08:24:00;6;6;
76421;PMS5003;65254;52.354;13.614;2023-06-14T08:28:00;5;5;
76421;PMS5003;65254;52.354;13.614;2023-06-14T08:32:00;6;6;
76421;PMS5003;65254;52.354;13.614;2023-06-14T08:36:00;5;5;
76421;PMS5003;65254;52.354;13.614;2023-06-14T08:40:00;5;5;
76421;PMS5003;65254;52.354;13.614;2023-06-14T08:44:00;5;5;
76421;PMS5003;65254;52.354;13.614;2023-06-14T08:48:01;5;5;
76421;PMS5003;65254;52.354;13.614;2023-06-14T08:52:01;4;4;
76421;PMS5003;65254;52.354;13.614;2023-06-14T08:56:01;4;4;
76421;PMS5003;65254;52.354;13.614;2023-06-14T09:00:02;4;4;
76421;PMS5003;65254;52.354;13.614;2023-06-14T09:04:01;4;4;
76421;PMS5003;65254;52.354;13.614;2023-06-14T09:08:04;4;4;
76421;PMS5003;65254;52.354;13.614;2023-06-14T09:12:00;4;4;
76421;PMS5003;65254;52.354;13.614;2023-06-14T09:16:00;5;5;
76421;PMS5003;65254;52.354;13.614;2023-06-14T09:20:01;4;4;
76421;PMS5003;65254;52.354;13.614;2023-06-14T09:24:01;4;4;
76421;PMS5003;65254;52.354;13.614;2023-06-14T09:28:01;4;4;
76421;PMS5003;65254;52.354;13.614;2023-06-14T09:32:01;4;4;
76421;PMS5003;65254;52.354;13.614;2023-06-14T09:36:00;4;4;
76421;PMS5003;65254;52.354;13.614;2023-06-14T09:40:01;4;4;
76421;PMS5003;65254;52.354;13.614;2023-06-14T09:44:02;3;3;
76421;PMS5003;65254;52.354;13.614;2023-06-14T09:48:08;4;4;
76421;PMS5003;65254;52.354;13.614;2023-06-14T09:52:01;3;3;
76421;PMS5003;65254;52.354;13.614;2023-06-14T09:56:01;3;3;
76421;PMS5003;65254;52.354;13.614;2023-06-14T10:00:01;3;3;
76421;PMS5003;65254;52.354;13.614;2023-06-14T10:04:10;3;3;
76421;PMS5003;65254;52.354;13.614;2023-06-14T10:08:04;3;3;
76421;PMS5003;65254;52.354;13.614;2023-06-14T10:12:01;3;3;
76421;PMS5003;65254;52.354;13.614;2023-06-14T10:16:05;3;3;
76421;PMS5003;65254;52.354;13.614;2023-06-14T10:20:10;4;4;
76421;PMS5003;65254;52.354;13.614;2023-06-14T10:24:04;3;3;
76421;PMS5003;65254;52.354;13.614;2023-06-14T10:28:03;3;3;
76421;PMS5003;65254;52.354;13.614;2023-06-14T10:32:00;3;3;
76421;PMS5003;65254;52.354;13.614;2023-06-14T10:36:24;3;3;
76421;PMS5003;65254;52.354;13.614;2023-06-14T10:40:01;3;3;
76421;PMS5003;65254;52.354;13.614;2023-06-14T10:48:00;3;3;
76421;PMS5003;65254;52.354;13.614;2023-06-14T10:52:02;3;3;
76421;PMS5003;65254;52.354;13.614;2023-06-14T10:56:06;3;3;
76421;PMS5003;65254;52.354;13.614;2023-06-14T11:00:01;3;3;
76421;PMS5003;65254;52.354;13.614;2023-06-14T11:04:07;3;3;
76421;PMS5003;65254;52.354;13.614;2023-06-14T11:08:15;3;3;
76421;PMS5003;65254;52.354;13.614;2023-06-14T11:12:01;3;3;
76421;PMS5003;65254;52.354;13.614;2023-06-14T11:16:01;3;3;
76421;PMS5003;65254;52.354;13.614;2023-06-14T11:20:08;3;3;
76421;PMS5003;65254;52.354;13.614;2023-06-14T11:24:01;4;4;
76421;PMS5003;65254;52.354;13.614;2023-06-14T11:28:00;4;4;
76421;PMS5003;65254;52.354;13.614;2023-06-14T11:32:01;3;3;
76421;PMS5003;65254;52.354;13.614;2023-06-14T11:36:02;3;3;
76421;PMS5003;65254;52.354;13.614;2023-06-14T11:40:01;3;3;
76421;PMS5003;65254;52.354;13.614;2023-06-14T11:44:01;3;3;
76421;PMS5003;65254;52.354;13.614;2023-06-14T11:48:01;3;3;
76421;PMS5003;65254;52.354;13.614;2023-06-14T11:52:00;3;3;
76421;PMS5003;65254;52.354;13.614;2023-06-14T11:56:01;3;3;
76421;PMS5003;65254;52.354;13.614;2023-06-14T12:00:03;3;3;
76421;PMS5003;65254;52.354;13.614;2023-06-14T12:04:01;4;4;
76421;PMS5003;65254;52.354;13.614;2023-06-14T12:08:03;3;3;
76421;PMS5003;65254;52.354;13.614;2023-06-14T12:12:00;3;3;
76421;PMS5003;65254;52.354;13.614;2023-06-14T12:16:01;4;4;
76421;PMS5003;65254;52.354;13.614;2023-06-14T12:20:05;3;3;
76421;PMS5003;65254;52.354;13.614;2023-06-14T12:24:03;3;3;
76421;PMS5003;65254;52.354;13.614;2023-06-14T12:28:04;3;3;
76421;PMS5003;65254;52.354;13.614;2023-06-14T12:32:01;3;3;
76421;PMS5003;65254;52.354;13.614;2023-06-14T12:36:02;3;3;
76421;PMS5003;65254;52.354;13.614;2023-06-14T12:40:00;3;3;
76421;PMS5003;65254;52.354;13.614;2023-06-14T12:44:00;3;3;
76421;PMS5003;65254;52.354;13.614;2023-06-14T12:48:01;4;4;
76421;PMS5003;65254;52.354;13.614;2023-06-14T12:52:00;3;3;
76421;PMS5003;65254;52.354;13.614;2023-06-14T12:56:00;4;4;
76421;PMS5003;65254;52.354;13.614;2023-06-14T13:00:01;3;3;
76421;PMS5003;65254;52.354;13.614;2023-06-14T13:04:00;3;3;
76421;PMS5003;65254;52.354;13.614;2023-06-14T13:08:01;3;3;
76421;PMS5003;65254;52.354;13.614;2023-06-14T13:12:00;3;3;
76421;PMS5003;65254;52.354;13.614;2023-06-14T13:16:01;3;3;
76421;PMS5003;65254;52.354;13.614;2023-06-14T13:20:00;3;3;
76421;PMS5003;65254;52.354;13.614;2023-06-14T13:24:01;3;3;
76421;PMS5003;65254;52.354;13.614;2023-06-14T13:28:00;3;3;
76421;PMS5003;65254;52.354;13.614;2023-06-14T13:32:01;3;3;
76421;PMS5003;65254;52.354;13.614;2023-06-14T13:36:00;3;3;
76421;PMS5003;65254;52.354;13.614;2023-06-14T13:40:00;3;3;
76421;PMS5003;65254;52.354;13.614;2023-06-14T13:44:10;3;3;
76421;PMS5003;65254;52.354;13.614;2023-06-14T13:48:10;3;3;
76421;PMS5003;65254;52.354;13.614;2023-06-14T13:52:10;3;3;
76421;PMS5003;65254;52.354;13.614;2023-06-14T13:56:10;3;3;
76421;PMS5003;65254;52.354;13.614;2023-06-14T14:00:11;3;3;
76421;PMS5003;65254;52.354;13.614;2023-06-14T14:04:10;3;3;
76421;PMS5003;65254;52.354;13.614;2023-06-14T14:08:10;3;3;
76421;PMS5003;65254;52.354;13.614;2023-06-14T14:12:10;3;3;
76421;PMS5003;65254;52.354;13.614;2023-06-14T14:16:10;3;3;
76421;PMS5003;65254;52.354;13.614;2023-06-14T14:20:11;2;2;
76421;PMS5003;65254;52.354;13.614;2023-06-14T14:24:10;3;3;
76421;PMS5003;65254;52.354;13.614;2023-06-14T14:28:10;3;3;
76421;PMS5003;65254;52.354;13.614;2023-06-14T14:32:01;3;3;
76421;PMS5003;65254;52.354;13.614;2023-06-14T14:36:00;3;3;
76421;PMS5003;65254;52.354;13.614;2023-06-14T14:40:00;3;3;
76421;PMS5003;65254;52.354;13.614;2023-06-14T14:44:00;3;3;
76421;PMS5003;65254;52.354;13.614;2023-06-14T14:48:01;3;3;
76421;PMS5003;65254;52.354;13.614;2023-06-14T14:52:10;3;3;
76421;PMS5003;65254;52.354;13.614;2023-06-14T14:56:01;3;3;
76421;PMS5003;65254;52.354;13.614;2023-06-14T15:00:00;3;3;
76421;PMS5003;65254;52.354;13.614;2023-06-14T15:04:01;3;3;
76421;PMS5003;65254;52.354;13.614;2023-06-14T15:08:00;3;3;
76421;PMS5003;65254;52.354;13.614;2023-06-14T15:12:00;3;3;
76421;PMS5003;65254;52.354;13.614;2023-06-14T15:16:01;3;3;
76421;PMS5003;65254;52.354;13.614;2023-06-14T15:20:01;3;3;
76421;PMS5003;65254;52.354;13.614;2023-06-14T15:24:00;3;3;
76421;PMS5003;65254;52.354;13.614;2023-06-14T15:28:00;3;3;
76421;PMS5003;65254;52.354;13.614;2023-06-14T15:32:01;3;3;
76421;PMS5003;65254;52.354;13.614;2023-06-14T15:36:00;3;3;
76421;PMS5003;65254;52.354;13.614;2023-06-14T15:40:00;4;4;
76421;PMS5003;65254;52.354;13.614;2023-06-14T15:44:00;4;4;
76421;PMS5003;65254;52.354;13.614;2023-06-14T15:48:01;3;3;
76421;PMS5003;65254;52.354;13.614;2023-06-14T15:52:00;3;3;
76421;PMS5003;65254;52.354;13.614;2023-06-14T15:56:00;3;3;
76421;PMS5003;65254;52.354;13.614;2023-06-14T16:00:00;3;3;
76421;PMS5003;65254;52.354;13.614;2023-06-14T16:04:00;3;3;
76421;PMS5003;65254;52.354;13.614;2023-06-14T16:08:00;4;4;
76421;PMS5003;65254;52.354;13.614;2023-06-14T16:12:00;3;3;
76421;PMS5003;65254;52.354;13.614;2023-06-14T16:16:00;3;3;
76421;PMS5003;65254;52.354;13.614;2023-06-14T16:20:00;3;3;
76421;PMS5003;65254;52.354;13.614;2023-06-14T16:24:00;3;3;
76421;PMS5003;65254;52.354;13.614;2023-06-14T16:28:00;3;3;
76421;PMS5003;65254;52.354;13.614;2023-06-14T16:32:01;3;3;
76421;PMS5003;65254;52.354;13.614;2023-06-14T16:36:00;3;3;
76421;PMS5003;65254;52.354;13.614;2023-06-14T16:40:00;3;3;
76421;PMS5003;65254;52.354;13.614;2023-06-14T16:44:00;3;3;
76421;PMS5003;65254;52.354;13.614;2023-06-14T16:48:00;4;4;
76421;PMS5003;65254;52.354;13.614;2023-06-14T16:52:00;3;3;
76421;PMS5003;65254;52.354;13.614;2023-06-14T16:56:00;3;3;
76421;PMS5003;65254;52.354;13.614;2023-06-14T17:00:00;3;3;
76421;PMS5003;65254;52.354;13.614;2023-06-14T17:04:01;3;3;
76421;PMS5003;65254;52.354;13.614;2023-06-14T17:08:01;3;3;
76421;PMS5003;65254;52.354;13.614;2023-06-14T17:12:00;4;4;
76421;PMS5003;65254;52.354;13.614;2023-06-14T17:16:01;4;4;
76421;PMS5003;65254;52.354;13.614;2023-06-14T17:20:00;3;3;
76421;PMS5003;65254;52.354;13.614;2023-06-14T17:24:00;3;3;
76421;PMS5003;65254;52.354;13.614;2023-06-14T17:28:00;3;3;
76421;PMS5003;65254;52.354;13.614;2023-06-14T17:32:00;3;3;
76421;PMS5003;65254;52.354;13.614;2023-06-14T17:36:00;3;3;
76421;PMS5003;65254;52.354;13.614;2023-06-14T17:40:00;4;4;
76421;PMS5003;65254;52.354;13.614;2023-06-14T17:44:00;3;3;
76421;PMS5003;65254;52.354;13.614;2023-06-14T17:48:00;4;4;
76421;PMS5003;65254;52.354;13.614;2023-06-14T17:52:00;4;4;
76421;PMS5003;65254;52.354;13.614;2023-06-14T17:56:02;4;4;
76421;PMS5003;65254;52.354;13.614;2023-06-14T18:00:01;4;4;
76421;PMS5003;65254;52.354;13.614;2023-06-14T18:04:00;3;3;
76421;PMS5003;65254;52.354;13.614;2023-06-14T18:08:00;3;3;
76421;PMS5003;65254;52.354;13.614;2023-06-14T18:12:00;3;3;
76421;PMS5003;65254;52.354;13.614;2023-06-14T18:16:00;3;3;
76421;PMS5003;65254;52.354;13.614;2023-06-14T18:20:00;3;3;
76421;PMS5003;65254;52.354;13.614;2023-06-14T18:24:00;3;3;
76421;PMS5003;65254;52.354;13.614;2023-06-14T18:28:00;3;3;
76421;PMS5003;65254;52.354;13.614;2023-06-14T18:32:01;4;4;
76421;PMS5003;65254;52.354;13.614;2023-06-14T18:36:00;4;4;
76421;PMS5003;65254;52.354;13.614;2023-06-14T18:40:00;3;3;
76421;PMS5003;65254;52.354;13.614;2023-06-14T18:44:01;3;3;
76421;PMS5003;65254;52.354;13.614;2023-06-14T18:48:01;4;4;
76421;PMS5003;65254;52.354;13.614;2023-06-14T18:52:00;3;3;
76421;PMS5003;65254;52.354;13.614;2023-06-14T18:56:00;3;3;
76421;PMS5003;65254;52.354;13.614;2023-06-14T19:00:01;4;4;
76421;PMS5003;65254;52.354;13.614;2023-06-14T19:04:01;11;8;
76421;PMS5003;65254;52.354;13.614;2023-06-14T19:08:00;5;5;
76421;PMS5003;65254;52.354;13.614;2023-06-14T19:12:00;4;4;
76421;PMS5003;65254;52.354;13.614;2023-06-14T19:16:00;3;3;
76421;PMS5003;65254;52.354;13.614;2023-06-14T19:20:01;4;4;
76421;PMS5003;65254;52.354;13.614;2023-06-14T19:24:00;4;4;
76421;PMS5003;65254;52.354;13.614;2023-06-14T19:28:00;4;4;
76421;PMS5003;65254;52.354;13.614;2023-06-14T19:32:00;3;3;
76421;PMS5003;65254;52.354;13.614;2023-06-14T19:36:00;4;4;
76421;PMS5003;65254;52.354;13.614;2023-06-14T19:40:00;4;4;
76421;PMS5003;65254;52.354;13.614;2023-06-14T19:44:00;4;4;
76421;PMS5003;65254;52.354;13.614;2023-06-14T19:48:10;4;4;
76421;PMS5003;65254;52.354;13.614;2023-06-14T19:52:00;4;4;
76421;PMS5003;65254;52.354;13.614;2023-06-14T19:56:00;4;4;
76421;PMS5003;65254;52.354;13.614;2023-06-14T20:00:01;4;4;
76421;PMS5003;65254;52.354;13.614;2023-06-14T20:04:00;4;4;
76421;PMS5003;65254;52.354;13.614;2023-06-14T20:08:00;4;4;
76421;PMS5003;65254;52.354;13.614;2023-06-14T20:12:01;4;4;
76421;PMS5003;65254;52.354;13.614;2023-06-14T20:16:00;5;5;
76421;PMS5003;65254;52.354;13.614;2023-06-14T20:20:00;5;5;
76421;PMS5003;65254;52.354;13.614;2023-06-14T20:24:00;5;5;
76421;PMS5003;65254;52.354;13.614;2023-06-14T20:28:00;4;4;
76421;PMS5003;65254;52.354;13.614;2023-06-14T20:32:00;5;5;
76421;PMS5003;65254;52.354;13.614;2023-06-14T20:36:00;5;5;
76421;PMS5003;65254;52.354;13.614;2023-06-14T20:40:00;6;6;
76421;PMS5003;65254;52.354;13.614;2023-06-14T20:44:00;5;5;
76421;PMS5003;65254;52.354;13.614;2023-06-14T20:48:02;5;5;
76421;PMS5003;65254;52.354;13.614;2023-06-14T20:52:00;5;5;
76421;PMS5003;65254;52.354;13.614;2023-06-14T20:56:01;5;5;
76421;PMS5003;65254;52.354;13.614;2023-06-14T21:00:01;5;5;
76421;PMS5003;65254;52.354;13.614;2023-06-14T21:04:01;5;5;
76421;PMS5003;65254;52.354;13.614;2023-06-14T21:08:00;5;5;
76421;PMS5003;65254;52.354;13.614;2023-06-14T21:12:01;5;5;
76421;PMS5003;65254;52.354;13.614;2023-06-14T21:16:00;5;5;
76421;PMS5003;65254;52.354;13.614;2023-06-14T21:20:00;5;5;
76421;PMS5003;65254;52.354;13.614;2023-06-14T21:24:01;5;5;
76421;PMS5003;65254;52.354;13.614;2023-06-14T21:28:00;5;5;
76421;PMS5003;65254;52.354;13.614;2023-06-14T21:32:00;5;5;
76421;PMS5003;65254;52.354;13.614;2023-06-14T21:36:00;5;5;
76421;PMS5003;65254;52.354;13.614;2023-06-14T21:40:06;5;5;
76421;PMS5003;65254;52.354;13.614;2023-06-14T21:44:00;5;5;
76421;PMS5003;65254;52.354;13.614;2023-06-14T21:48:01;5;5;
76421;PMS5003;65254;52.354;13.614;2023-06-14T21:52:00;4;4;
76421;PMS5003;65254;52.354;13.614;2023-06-14T21:56:01;4;4;
76421;PMS5003;65254;52.354;13.614;2023-06-14T22:00:00;4;4;
76421;PMS5003;65254;52.354;13.614;2023-06-14T22:04:00;4;4;
76421;PMS5003;65254;52.354;13.614;2023-06-14T22:08:00;4;4;
76421;PMS5003;65254;52.354;13.614;2023-06-14T22:12:00;4;4;
76421;PMS5003;65254;52.354;13.614;2023-06-14T22:16:01;4;4;
76421;PMS5003;65254;52.354;13.614;2023-06-14T22:20:01;4;4;
76421;PMS5003;65254;52.354;13.614;2023-06-14T22:24:01;4;4;
76421;PMS5003;65254;52.354;13.614;2023-06-14T22:28:00;4;4;
76421;PMS5003;65254;52.354;13.614;2023-06-14T22:32:00;4;4;
76421;PMS5003;65254;52.354;13.614;2023-06-14T22:36:00;4;4;
76421;PMS5003;65254;52.354;13.614;2023-06-14T22:40:00;4;4;
76421;PMS5003;65254;52.354;13.614;2023-06-14T22:44:00;4;4;
76421;PMS5003;65254;52.354;13.614;2023-06-14T22:48:00;3;3;
76421;PMS5003;65254;52.354;13.614;2023-06-14T22:52:00;4;4;
76421;PMS5003;65254;52.354;13.614;2023-06-14T22:56:00;4;4;
76421;PMS5003;65254;52.354;13.614;2023-06-14T23:00:00;3;3;
76421;PMS5003;65254;52.354;13.614;2023-06-14T23:04:00;3;3;
76421;PMS5003;65254;52.354;13.614;2023-06-14T23:08:00;4;4;
76421;PMS5003;65254;52.354;13.614;2023-06-14T23:12:00;4;4;
76421;PMS5003;65254;52.354;13.614;2023-06-14T23:16:00;4;4;
76421;PMS5003;65254;52.354;13.614;2023-06-14T23:20:02;4;4;
76421;PMS5003;65254;52.354;13.614;2023-06-14T23:24:00;4;4;
76421;PMS5003;65254;52.354;13.614;2023-06-14T23:28:00;4;4;
76421;PMS5003;65254;52.354;13.614;2023-06-14T23:32:01;4;4;
76421;PMS5003;65254;52.354;13.614;2023-06-14T23:36:01;4;4;
76421;PMS5003;65254;52.354;13.614;2023-06-14T23:40:01;4;4;
76421;PMS5003;65254;52.354;13.614;2023-06-14T23:44:00;4;4;
76421;PMS5003;65254;52.354;13.614;2023-06-14T23:48:01;4;4;
76421;PMS5003;65254;52.354;13.614;2023-06-14T23:52:00;4;4;
76421;PMS5003;65254;52.354;13.614;2023-06-14T23:56:01;4;4;
